»·PEaware :: N12RF KSNA-KFAT

N12RF :: KSNA-KFAT

FLIGHT INFORMATION

Flight Status: Arrived
Operator: Privately registered:
United States
More flights under this callsign
Pilot: Andrew C. (32327)
Aircraft: SOCATA TBM-900
(TBM9)
More flights by this aircraft type
Origin: KSNA John Wayne-Orange Co
United States
Destination: KFAT Fresno Yosemite Intl
United States
More flights between these airports :: More routes between these airports
Route: +MUSEL8 SLI V459 LHS TTE ALTTA9
File this flight plan on PilotEdge
Remarks:
Altitude:
(Current/Filed)
16,000ft
Speed:
(Current/Filed)
250kts
Departed: 29-Nov-20 01:11 PM
Arrived: 29-Nov-20 02:10 PM
Distance/Time
Traveled:
207nm/0:59
Distance/Time
To Go:
Arrived

Flight Plot

Page will automatically refresh every two minutes.

Flight plan parsing failed; only flown route is shown


Map Options




Map Legend


Flown Route
Filed Route
Departure Airport
Arrival Airport
Navaid (VOR, NDB)
Fix

Horizontal Profiles

Position Reports

Time Latitude Longitude Heading Altitude Ground
Speed
29-Nov-20 12:46 33.671701 -117.867795 27 59ft 0kts
29-Nov-20 12:46 33.671701 -117.867795 27 59ft 0kts
29-Nov-20 12:52 33.671701 -117.867794 27 59ft 0kts
29-Nov-20 12:58 33.671701 -117.867794 27 59ft 0kts
29-Nov-20 13:00 33.671701 -117.867794 27 59ft 0kts
29-Nov-20 13:01 33.671701 -117.867794 27 59ft 0kts
29-Nov-20 13:02 33.671701 -117.867794 27 59ft 0kts
29-Nov-20 13:03 33.671701 -117.867794 27 59ft 0kts
29-Nov-20 13:03 33.671701 -117.867794 27 59ft 0kts
29-Nov-20 13:04 33.671708 -117.867790 24 59ft 0kts
29-Nov-20 13:05 33.672924 -117.867509 46 59ft 8kts
29-Nov-20 13:07 33.675875 -117.865370 27 59ft 11kts
29-Nov-20 13:07 33.678428 -117.863754 27 59ft 12kts
29-Nov-20 13:08 33.680584 -117.862961 299 59ft 5kts
29-Nov-20 13:09 33.681310 -117.865248 209 59ft 9kts
29-Nov-20 13:10 33.669924 -117.872645 210 460ft 115kts
29-Nov-20 13:11 33.630986 -117.892074 188 2028ft 172kts
29-Nov-20 13:12 33.585023 -117.910069 249 3846ft 182kts
29-Nov-20 13:13 33.587618 -117.963140 242 6279ft 167kts
29-Nov-20 13:15 33.561605 -118.021839 241 8482ft 174kts
29-Nov-20 13:15 33.559085 -118.064897 332 9933ft 168kts
29-Nov-20 13:16 33.607243 -118.059852 4 11667ft 171kts
29-Nov-20 13:17 33.657027 -118.057460 0 14081ft 171kts
29-Nov-20 13:18 33.710067 -118.056243 359 16009ft 200kts
29-Nov-20 13:19 33.784218 -118.055873 345 15973ft 259kts
29-Nov-20 13:20 33.857328 -118.097248 334 15982ft 266kts
29-Nov-20 13:21 33.927858 -118.137827 334 15980ft 268kts
29-Nov-20 13:22 33.999600 -118.179164 334 15979ft 269kts
29-Nov-20 13:23 34.068460 -118.218915 334 15979ft 269kts
29-Nov-20 13:24 34.135877 -118.257910 334 15982ft 269kts
29-Nov-20 13:25 34.205247 -118.298095 334 15982ft 269kts
29-Nov-20 13:26 34.276821 -118.339650 334 15981ft 269kts
29-Nov-20 13:27 34.348144 -118.381131 334 15981ft 270kts
29-Nov-20 13:28 34.419478 -118.422702 334 15981ft 270kts
29-Nov-20 13:29 34.490876 -118.464387 334 15898ft 271kts
29-Nov-20 13:30 34.561433 -118.505656 333 15898ft 271kts
29-Nov-20 13:31 34.632276 -118.547178 333 15898ft 271kts
29-Nov-20 13:32 34.702674 -118.583981 343 15899ft 272kts
29-Nov-20 13:33 34.775791 -118.609942 342 15939ft 271kts
29-Nov-20 13:34 34.848859 -118.635980 342 16024ft 270kts
29-Nov-20 13:35 34.922008 -118.662098 342 16063ft 271kts
29-Nov-20 13:36 34.994821 -118.688144 342 16063ft 272kts
29-Nov-20 13:37 35.067838 -118.714306 342 16063ft 273kts
29-Nov-20 13:38 35.141402 -118.740721 342 16065ft 273kts
29-Nov-20 13:39 35.215108 -118.767232 342 16065ft 273kts
29-Nov-20 13:40 35.289162 -118.793915 342 16064ft 273kts
29-Nov-20 13:41 35.362198 -118.820295 342 16059ft 274kts
29-Nov-20 13:42 35.435450 -118.846790 342 16040ft 274kts
29-Nov-20 13:43 35.509473 -118.873617 342 16025ft 275kts
29-Nov-20 13:44 35.583148 -118.900373 342 16020ft 275kts
29-Nov-20 13:45 35.656392 -118.927023 342 16017ft 275kts
29-Nov-20 13:46 35.730601 -118.954074 342 16016ft 275kts
29-Nov-20 13:47 35.805481 -118.981425 342 16013ft 275kts
29-Nov-20 13:48 35.880620 -119.008924 342 15995ft 276kts
29-Nov-20 13:49 35.956286 -119.041303 337 14824ft 282kts
29-Nov-20 13:50 36.025171 -119.074060 337 13995ft 249kts
29-Nov-20 13:51 36.091550 -119.105691 337 13106ft 256kts
29-Nov-20 13:52 36.157166 -119.136999 337 12457ft 242kts
29-Nov-20 13:53 36.224329 -119.169116 337 11611ft 275kts
29-Nov-20 13:54 36.294513 -119.202728 338 10396ft 255kts
29-Nov-20 13:55 36.360386 -119.234314 338 8531ft 248kts
29-Nov-20 13:56 36.424002 -119.264907 339 6153ft 228kts
29-Nov-20 13:57 36.480484 -119.292060 339 5213ft 209kts
29-Nov-20 13:58 36.537146 -119.319389 339 4264ft 218kts
29-Nov-20 13:59 36.576953 -119.362968 304 3893ft 194kts
29-Nov-20 14:00 36.607671 -119.418635 305 3902ft 192kts
29-Nov-20 14:01 36.637958 -119.473342 305 3463ft 186kts
29-Nov-20 14:02 36.666926 -119.524431 313 2909ft 163kts
29-Nov-20 14:03 36.690325 -119.569134 300 2444ft 149kts
29-Nov-20 14:04 36.712510 -119.610658 305 2186ft 142kts
29-Nov-20 14:05 36.733444 -119.642740 308 1593ft 116kts
29-Nov-20 14:06 36.752958 -119.675983 306 938ft 115kts
29-Nov-20 14:07 36.769367 -119.704457 304 361ft 83kts
29-Nov-20 14:08 36.776330 -119.717628 279 334ft 41kts
29-Nov-20 14:09 36.777239 -119.724773 302 334ft 28kts

Navigation Log

Ident Type
Flight plan parsing failed, navigation log unavailable